createdAt,value
2023-04-14T00:00:58.065Z,13.93
2023-04-14T00:02:35.752Z,13.49
2023-04-14T00:03:58.644Z,12.97
2023-04-14T00:05:20.543Z,12.58
2023-04-14T00:07:08.838Z,12.21
2023-04-14T00:08:39.179Z,11.89
2023-04-14T00:10:05.127Z,11.66
2023-04-14T00:11:34.577Z,11.46
2023-04-14T00:13:01.730Z,11.31
2023-04-14T00:14:47.187Z,11.15
2023-04-14T00:16:25.732Z,11.59
2023-04-14T00:17:55.824Z,12.74
2023-04-14T00:19:17.744Z,13.89
2023-04-14T00:21:03.068Z,14.22
2023-04-14T00:22:25.054Z,13.83
2023-04-14T00:23:58.622Z,13.34
2023-04-14T00:25:44.297Z,12.88
2023-04-14T00:27:18.036Z,12.47
2023-04-14T00:28:40.568Z,12.22
2023-04-14T00:30:08.447Z,11.98
2023-04-14T00:31:31.554Z,11.78
2023-04-14T00:32:55.988Z,11.62
2023-04-14T00:34:17.611Z,11.48
2023-04-14T00:35:47.303Z,11.34
2023-04-14T00:37:09.368Z,11.20
2023-04-14T00:38:59.237Z,11.37
2023-04-14T00:40:46.563Z,12.68
2023-04-14T00:42:19.995Z,14.01
2023-04-14T00:44:05.327Z,14.23
2023-04-14T00:45:39.206Z,13.82
2023-04-14T00:47:03.736Z,13.30
2023-04-14T00:48:27.879Z,12.88
2023-04-14T00:49:49.885Z,12.54
2023-04-14T00:51:24.029Z,12.23
2023-04-14T00:53:09.298Z,11.96
2023-04-14T00:54:33.552Z,11.72
2023-04-14T00:56:09.252Z,11.52
2023-04-14T00:57:43.539Z,11.37
2023-04-14T00:59:18.315Z,11.29
2023-04-14T01:00:52.486Z,11.94
2023-04-14T01:02:16.696Z,13.20
2023-04-14T01:03:53.191Z,14.17
2023-04-14T01:05:17.209Z,14.17
2023-04-14T01:06:52.846Z,13.72
2023-04-14T01:08:28.806Z,13.14
2023-04-14T01:10:12.960Z,12.63
2023-04-14T01:11:48.318Z,12.16
2023-04-14T01:13:33.684Z,11.84
2023-04-14T01:15:08.909Z,11.57
2023-04-14T01:16:50.098Z,11.31
2023-04-14T01:18:35.586Z,11.58
2023-04-14T01:20:09.052Z,12.67
2023-04-14T01:21:54.324Z,13.97
2023-04-14T01:23:20.532Z,14.24
2023-04-14T01:25:14.772Z,13.77
2023-04-14T01:27:02.938Z,13.07
2023-04-14T01:28:56.716Z,12.47
2023-04-14T01:30:30.385Z,11.99
2023-04-14T01:32:05.937Z,11.61
2023-04-14T01:33:37.537Z,11.24
2023-04-14T01:35:13.400Z,11.15
2023-04-14T01:36:50.360Z,12.11
2023-04-14T01:38:25.898Z,13.20
2023-04-14T01:40:09.283Z,14.15
2023-04-14T01:41:43.614Z,14.01
2023-04-14T01:43:07.304Z,13.49
2023-04-14T01:44:53.804Z,12.86
2023-04-14T01:46:42.243Z,12.26
2023-04-14T01:48:06.665Z,11.84
2023-04-14T01:49:40.748Z,11.51
2023-04-14T01:51:15.745Z,11.23
2023-04-14T01:52:57.537Z,11.14
2023-04-14T01:54:43.078Z,12.03
2023-04-14T01:56:29.548Z,13.38
2023-04-14T01:57:54.042Z,14.10
2023-04-14T01:59:40.414Z,13.82
2023-04-14T02:01:26.902Z,13.12
2023-04-14T02:03:12.726Z,12.48
2023-04-14T02:04:58.250Z,11.91
2023-04-14T02:06:44.383Z,11.46
2023-04-14T02:08:10.379Z,11.12
2023-04-14T02:09:46.482Z,11.22
2023-04-14T02:11:20.249Z,12.38
2023-04-14T02:12:55.917Z,13.49
2023-04-14T02:14:34.538Z,14.14
2023-04-14T02:16:08.020Z,13.74
2023-04-14T02:17:41.621Z,13.17
2023-04-14T02:19:23.846Z,12.65
2023-04-14T02:20:57.280Z,12.19
2023-04-14T02:22:34.552Z,11.85
2023-04-14T02:24:15.251Z,11.57
2023-04-14T02:25:56.525Z,11.32
2023-04-14T02:27:32.394Z,11.09
2023-04-14T02:29:09.713Z,10.96
2023-04-14T02:30:45.274Z,11.55
2023-04-14T02:32:20.956Z,12.94
2023-04-14T02:33:57.191Z,13.89
2023-04-14T02:35:42.724Z,13.80
2023-04-14T02:37:27.643Z,13.23
2023-04-14T02:39:03.665Z,12.66
2023-04-14T02:40:38.108Z,12.23
2023-04-14T02:42:12.574Z,11.93
2023-04-14T02:43:46.526Z,11.65
2023-04-14T02:45:21.807Z,11.41
2023-04-14T02:47:07.007Z,11.16
2023-04-14T02:49:04.678Z,11.25
2023-04-14T02:50:58.755Z,12.54
2023-04-14T02:52:33.863Z,13.83
2023-04-14T02:54:15.658Z,14.11
2023-04-14T02:56:03.891Z,13.55
2023-04-14T02:57:34.146Z,12.99
2023-04-14T02:58:58.213Z,12.58
2023-04-14T03:00:33.246Z,12.20
2023-04-14T03:01:59.496Z,11.92
2023-04-14T03:03:35.357Z,11.67
2023-04-14T03:05:17.232Z,11.43
2023-04-14T03:07:04.286Z,11.19
2023-04-14T03:08:49.989Z,11.36
2023-04-14T03:10:22.515Z,12.45
2023-04-14T03:12:18.666Z,13.76
2023-04-14T03:14:09.662Z,14.09
2023-04-14T03:15:55.098Z,13.52
2023-04-14T03:17:36.335Z,12.96
2023-04-14T03:19:23.445Z,12.49
2023-04-14T03:21:05.074Z,12.11
2023-04-14T03:22:41.251Z,11.84
2023-04-14T03:24:37.207Z,11.57
2023-04-14T03:26:26.281Z,11.32
2023-04-14T03:28:00.525Z,11.11
2023-04-14T03:29:34.104Z,10.95
2023-04-14T03:31:19.141Z,10.81
2023-04-14T03:33:07.978Z,10.89
2023-04-14T03:34:57.057Z,12.06
2023-04-14T03:36:43.392Z,13.49
2023-04-14T03:38:30.002Z,13.78
2023-04-14T03:40:14.615Z,13.33
2023-04-14T03:42:01.381Z,12.72
2023-04-14T03:43:35.206Z,12.24
2023-04-14T03:45:30.395Z,11.88
2023-04-14T03:47:24.906Z,11.55
2023-04-14T03:49:00.346Z,11.27
2023-04-14T03:50:45.466Z,11.07
2023-04-14T03:52:26.677Z,10.91
2023-04-14T03:54:02.643Z,10.73
2023-04-14T03:55:26.991Z,11.03
2023-04-14T03:57:12.506Z,12.20
2023-04-14T03:59:08.420Z,13.58
2023-04-14T04:00:55.405Z,13.85
2023-04-14T04:02:31.441Z,13.33
2023-04-14T04:04:14.828Z,12.83
2023-04-14T04:06:07.001Z,12.33
2023-04-14T04:07:54.386Z,11.90
2023-04-14T04:09:35.458Z,11.58
2023-04-14T04:11:21.003Z,11.42
2023-04-14T04:13:06.293Z,12.27
2023-04-14T04:14:41.349Z,13.51
2023-04-14T04:16:27.349Z,14.63
2023-04-14T04:18:21.970Z,14.49
2023-04-14T04:19:58.718Z,13.81
2023-04-14T04:21:44.533Z,13.26
2023-04-14T04:23:29.821Z,12.76
2023-04-14T04:25:03.509Z,12.35
2023-04-14T04:26:50.600Z,12.07
2023-04-14T04:28:24.020Z,12.50
2023-04-14T04:29:58.707Z,13.48
2023-04-14T04:31:35.405Z,14.76
2023-04-14T04:33:10.209Z,15.22
2023-04-14T04:34:57.147Z,14.79
2023-04-14T04:36:45.177Z,14.09
2023-04-14T04:38:21.492Z,13.56
2023-04-14T04:40:02.770Z,13.05
2023-04-14T04:41:36.541Z,12.68
2023-04-14T04:43:21.930Z,12.78
2023-04-14T04:44:58.124Z,13.90
2023-04-14T04:46:27.309Z,15.02
2023-04-14T04:48:13.021Z,15.63
2023-04-14T04:49:58.820Z,15.24
2023-04-14T04:51:44.810Z,14.54
2023-04-14T04:53:20.800Z,13.96
2023-04-14T04:54:54.778Z,13.48
2023-04-14T04:56:32.834Z,13.05
2023-04-14T04:58:08.642Z,12.81
2023-04-14T04:59:43.594Z,13.35
2023-04-14T05:01:14.768Z,14.57
2023-04-14T05:03:03.668Z,15.59
2023-04-14T05:04:25.869Z,15.68
2023-04-14T05:06:04.850Z,15.20
2023-04-14T05:07:51.431Z,14.48
2023-04-14T05:09:37.154Z,13.88
2023-04-14T05:11:10.588Z,13.40
2023-04-14T05:12:47.048Z,13.09
2023-04-14T05:14:32.223Z,13.43
2023-04-14T05:16:18.787Z,14.64
2023-04-14T05:20:05.743Z,15.74
2023-04-14T05:21:54.099Z,15.14
2023-04-14T05:23:28.099Z,14.47
2023-04-14T05:25:01.714Z,13.97
2023-04-14T05:26:57.777Z,13.57
2023-04-14T05:28:40.783Z,13.18
2023-04-14T05:30:18.761Z,13.50
2023-04-14T05:32:04.017Z,14.75
2023-04-14T05:33:49.576Z,15.93
2023-04-14T05:35:34.909Z,16.07
2023-04-14T05:37:15.689Z,15.47
2023-04-14T05:39:01.748Z,14.84
2023-04-14T05:40:37.475Z,14.35
2023-04-14T05:42:19.370Z,13.93
2023-04-14T05:44:04.543Z,13.54
2023-04-14T05:45:52.711Z,13.54
2023-04-14T05:47:26.226Z,14.50
2023-04-14T05:49:07.846Z,15.80
2023-04-14T05:50:41.589Z,16.44
2023-04-14T05:52:29.561Z,16.11
2023-04-14T05:54:12.594Z,15.42
2023-04-14T05:56:05.442Z,14.80
2023-04-14T05:57:39.229Z,14.26
2023-04-14T05:59:24.524Z,13.90
2023-04-14T06:01:05.194Z,13.57
2023-04-14T06:02:46.366Z,13.54
2023-04-14T06:04:20.721Z,14.43
2023-04-14T06:05:55.554Z,15.62
2023-04-14T06:07:42.018Z,16.52
2023-04-14T06:09:03.941Z,16.33
2023-04-14T06:10:37.575Z,15.79
2023-04-14T06:12:30.855Z,15.25
2023-04-14T06:14:24.312Z,14.71
2023-04-14T06:16:00.621Z,14.29
2023-04-14T06:17:35.728Z,13.98
2023-04-14T06:19:22.099Z,13.73
2023-04-14T06:21:07.588Z,13.88
2023-04-14T06:22:52.997Z,15.07
2023-04-14T06:24:28.478Z,16.35
2023-04-14T06:26:22.442Z,16.74
2023-04-14T06:28:15.219Z,16.23
2023-04-14T06:29:37.696Z,15.64
2023-04-14T06:31:26.423Z,15.17
2023-04-14T06:33:11.471Z,14.72
2023-04-14T06:34:57.627Z,14.40
2023-04-14T06:36:43.855Z,14.13
2023-04-14T06:38:32.139Z,13.91
2023-04-14T06:40:07.229Z,14.38
2023-04-14T06:41:44.763Z,15.70
2023-04-14T06:43:19.870Z,16.61
2023-04-14T06:44:44.685Z,16.68
2023-04-14T06:46:29.775Z,16.22
2023-04-14T06:48:15.166Z,15.68
2023-04-14T06:49:49.654Z,15.28
2023-04-14T06:51:35.936Z,14.92
2023-04-14T06:53:17.729Z,14.66
2023-04-14T06:54:51.635Z,14.45
2023-04-14T06:56:24.723Z,14.25
2023-04-14T06:57:56.364Z,14.10
2023-04-14T06:59:30.024Z,14.03
2023-04-14T07:01:04.201Z,14.90
2023-04-14T07:02:40.166Z,16.17
2023-04-14T07:04:28.145Z,16.97
2023-04-14T07:06:01.997Z,16.76
2023-04-14T07:07:26.327Z,16.34
2023-04-14T07:09:00.241Z,15.94
2023-04-14T07:10:47.030Z,15.54
2023-04-14T07:12:23.166Z,15.27
2023-04-14T07:14:10.426Z,15.10
2023-04-14T07:15:32.269Z,14.99
2023-04-14T07:16:54.125Z,14.93
2023-04-14T07:18:30.318Z,14.89
2023-04-14T07:20:17.822Z,14.85
2023-04-14T07:21:51.230Z,14.82
2023-04-14T07:23:24.804Z,14.79
2023-04-14T07:24:58.521Z,14.78
2023-04-14T07:26:39.208Z,14.78
2023-04-14T07:28:24.459Z,14.81
2023-04-14T07:30:06.281Z,14.82
2023-04-14T07:31:40.181Z,14.85
2023-04-14T07:33:28.441Z,14.88
2023-04-14T07:35:14.658Z,14.99
2023-04-14T07:37:10.064Z,16.04
2023-04-14T07:38:45.100Z,17.32
2023-04-14T07:40:30.226Z,17.52
2023-04-14T07:42:14.426Z,17.26
2023-04-14T07:44:09.678Z,16.89
2023-04-14T07:45:43.633Z,16.61
2023-04-14T07:47:16.996Z,16.45
2023-04-14T07:49:02.875Z,16.31
2023-04-14T07:50:38.819Z,16.20
2023-04-14T07:52:29.652Z,16.10
2023-04-14T07:54:21.224Z,16.02
2023-04-14T07:56:11.861Z,15.95
2023-04-14T07:58:04.078Z,15.90
2023-04-14T07:59:50.534Z,15.88
2023-04-14T08:01:24.608Z,15.85
2023-04-14T08:02:57.874Z,15.80
2023-04-14T08:04:43.894Z,15.78
2023-04-14T08:06:18.198Z,15.76
2023-04-14T08:08:01.755Z,15.75
2023-04-14T08:09:35.855Z,15.75
2023-04-14T08:11:29.638Z,15.74
2023-04-14T08:13:23.558Z,15.74
2023-04-14T08:14:57.604Z,15.76
2023-04-14T08:16:40.905Z,15.78
2023-04-14T08:18:26.458Z,15.80
2023-04-14T08:20:11.624Z,15.83
2023-04-14T08:21:45.919Z,15.86
2023-04-14T08:23:30.913Z,15.86
2023-04-14T08:25:04.655Z,15.84
2023-04-14T08:26:50.723Z,15.79
2023-04-14T08:28:35.712Z,15.71
2023-04-14T08:30:11.711Z,15.65
2023-04-14T08:31:45.779Z,15.59
2023-04-14T08:33:31.097Z,15.54
2023-04-14T08:35:35.696Z,15.51
2023-04-14T08:37:08.411Z,15.49
2023-04-14T08:38:54.137Z,15.48
2023-04-14T08:40:35.150Z,15.50
2023-04-14T08:42:20.788Z,15.53
2023-04-14T08:44:05.365Z,15.56
2023-04-14T08:45:26.826Z,15.61
2023-04-14T08:47:00.629Z,15.67
2023-04-14T08:48:46.500Z,15.73
2023-04-14T08:50:32.323Z,15.79
2023-04-14T08:52:05.570Z,15.84
2023-04-14T08:53:29.655Z,15.90
2023-04-14T08:54:52.163Z,15.94
2023-04-14T08:56:25.460Z,15.98
2023-04-14T08:57:49.799Z,16.01
2023-04-14T08:59:34.655Z,16.05
2023-04-14T09:00:58.812Z,16.08
2023-04-14T09:02:34.964Z,16.11
2023-04-14T09:04:20.405Z,16.15
2023-04-14T09:05:53.896Z,16.19
2023-04-14T09:07:30.443Z,16.24
2023-04-14T09:09:00.168Z,16.28
2023-04-14T09:10:46.288Z,16.33
2023-04-14T09:12:26.168Z,16.39
2023-04-14T09:14:07.165Z,16.46
2023-04-14T09:15:29.379Z,16.51
2023-04-14T09:17:10.034Z,16.55
2023-04-14T09:18:44.122Z,16.59
2023-04-14T09:20:37.619Z,16.66
2023-04-14T09:22:10.051Z,16.74
2023-04-14T09:23:43.994Z,16.80
2023-04-14T09:25:29.087Z,16.86
2023-04-14T09:27:03.332Z,16.92
2023-04-14T09:28:37.138Z,16.98
2023-04-14T09:30:03.704Z,17.02
2023-04-14T09:31:50.097Z,17.05
2023-04-14T09:33:35.287Z,17.07
2023-04-14T09:35:16.244Z,17.05
2023-04-14T09:36:54.384Z,17.06
2023-04-14T09:38:18.574Z,17.09
2023-04-14T09:39:47.675Z,17.14
2023-04-14T09:41:09.412Z,17.19
2023-04-14T09:43:04.649Z,17.28
2023-04-14T09:44:38.342Z,17.40
2023-04-14T09:46:26.683Z,17.50
2023-04-14T09:48:03.966Z,17.61
2023-04-14T09:49:42.279Z,17.75
2023-04-14T09:51:18.320Z,17.86
2023-04-14T09:53:06.271Z,17.97
2023-04-14T09:54:39.956Z,18.06
2023-04-14T09:56:15.803Z,18.15
2023-04-14T10:00:01.660Z,18.40
2023-04-14T10:01:44.408Z,18.53
2023-04-14T10:03:29.309Z,18.64
2023-04-14T10:04:58.823Z,18.71
2023-04-14T10:06:32.577Z,18.78
2023-04-14T10:08:06.525Z,18.85
2023-04-14T10:09:43.238Z,18.94
2023-04-14T10:11:07.526Z,19.02
2023-04-14T10:12:43.591Z,19.11
2023-04-14T10:14:19.086Z,19.18
2023-04-14T10:15:53.432Z,19.24
2023-04-14T10:17:38.709Z,19.30
2023-04-14T10:19:14.646Z,19.34
2023-04-14T10:20:38.862Z,19.37
2023-04-14T10:22:06.599Z,19.41
2023-04-14T10:23:36.638Z,19.44
2023-04-14T10:25:10.098Z,19.46
2023-04-14T10:26:36.597Z,19.47
2023-04-14T10:28:12.103Z,19.49
2023-04-14T10:29:57.724Z,19.51
2023-04-14T10:31:33.344Z,19.54
2023-04-14T10:33:26.833Z,19.57
2023-04-14T10:34:58.228Z,19.63
2023-04-14T10:36:39.585Z,19.68
2023-04-14T10:38:29.034Z,19.71
2023-04-14T10:40:14.054Z,19.73
2023-04-14T10:42:07.665Z,19.77
2023-04-14T10:43:39.551Z,19.78
2023-04-14T10:45:15.463Z,19.79
2023-04-14T10:46:57.363Z,19.80
2023-04-14T10:48:23.382Z,19.84
2023-04-14T10:50:16.899Z,19.86
2023-04-14T10:51:50.401Z,19.87
2023-04-14T10:53:25.826Z,19.84
2023-04-14T10:55:05.626Z,19.81
2023-04-14T10:56:38.820Z,19.81
2023-04-14T10:58:22.906Z,19.80
2023-04-14T10:59:47.647Z,19.83
2023-04-14T11:01:12.202Z,19.89
2023-04-14T11:02:48.375Z,19.94
2023-04-14T11:04:33.204Z,19.98
2023-04-14T11:06:02.504Z,20.00
2023-04-14T11:08:02.396Z,20.06
2023-04-14T11:09:39.068Z,20.12
2023-04-14T11:11:08.257Z,20.13
2023-04-14T11:12:43.093Z,20.08
2023-04-14T11:14:23.201Z,20.02
2023-04-14T11:15:47.980Z,20.04
2023-04-14T11:17:34.158Z,20.05
2023-04-14T11:18:56.438Z,20.00
2023-04-14T11:20:19.282Z,19.94
2023-04-14T11:21:53.932Z,19.86
2023-04-14T11:23:19.300Z,19.79
2023-04-14T11:24:48.962Z,19.77
2023-04-14T11:26:10.644Z,19.84
2023-04-14T11:27:48.650Z,19.98
2023-04-14T11:29:11.141Z,20.13
2023-04-14T11:30:35.911Z,20.27
2023-04-14T11:31:58.171Z,20.39
2023-04-14T11:33:22.004Z,20.51
2023-04-14T11:34:58.308Z,20.65
2023-04-14T11:36:20.037Z,20.71
2023-04-14T11:37:54.357Z,20.71
2023-04-14T11:39:28.888Z,20.73
2023-04-14T11:40:58.254Z,20.72
2023-04-14T11:42:32.428Z,20.74
2023-04-14T11:44:25.790Z,20.81
2023-04-14T11:46:18.764Z,20.88
2023-04-14T11:48:04.431Z,20.90
2023-04-14T11:49:37.780Z,20.90
2023-04-14T11:51:13.602Z,20.84
2023-04-14T11:53:07.259Z,20.77
2023-04-14T11:54:52.548Z,20.67
2023-04-14T11:56:27.828Z,20.60
2023-04-14T11:58:03.271Z,20.52
2023-04-14T11:59:36.681Z,20.43
2023-04-14T12:00:58.525Z,20.33
2023-04-14T12:02:20.393Z,20.26
2023-04-14T12:03:50.289Z,20.22
2023-04-14T12:05:12.386Z,20.19
2023-04-14T12:06:45.989Z,20.15
2023-04-14T12:08:19.350Z,20.07
2023-04-14T12:10:04.679Z,20.02
2023-04-14T12:11:40.439Z,20.11
2023-04-14T12:13:23.688Z,20.19
2023-04-14T12:14:57.054Z,20.37
2023-04-14T12:16:42.879Z,20.54
2023-04-14T12:19:49.941Z,21.03
2023-04-14T12:21:25.677Z,21.28
2023-04-14T12:23:11.209Z,21.41
2023-04-14T12:24:47.361Z,21.49
2023-04-14T12:26:20.978Z,21.63
2023-04-14T12:28:05.909Z,21.73
2023-04-14T12:29:36.466Z,21.75
2023-04-14T12:31:19.385Z,21.73
2023-04-14T12:33:02.947Z,21.68
2023-04-14T12:34:36.644Z,21.58
2023-04-14T12:36:12.209Z,21.48
2023-04-14T12:37:46.147Z,21.38
2023-04-14T12:39:30.906Z,21.25
2023-04-14T12:41:16.408Z,21.07
2023-04-14T12:43:10.033Z,20.87
2023-04-14T12:44:43.906Z,20.65
2023-04-14T12:46:28.867Z,20.43
2023-04-14T12:48:10.833Z,20.28
2023-04-14T12:50:02.888Z,20.11
2023-04-14T12:51:36.342Z,20.01
2023-04-14T12:53:00.292Z,19.99
2023-04-14T12:54:34.349Z,19.96
2023-04-14T12:56:16.076Z,19.90
2023-04-14T12:57:49.896Z,19.78
2023-04-14T12:59:11.983Z,19.69
2023-04-14T13:00:57.924Z,19.59
2023-04-14T13:02:24.844Z,19.50
2023-04-14T13:03:58.679Z,19.42
2023-04-14T13:05:20.429Z,19.36
2023-04-14T13:06:50.626Z,19.32
2023-04-14T13:08:26.111Z,19.35
2023-04-14T13:10:08.323Z,19.35
2023-04-14T13:11:40.405Z,19.29
2023-04-14T13:13:34.695Z,19.19
2023-04-14T13:16:10.456Z,19.14
2023-04-14T13:17:24.662Z,19.10
2023-04-14T13:18:59.202Z,19.04
2023-04-14T13:20:33.045Z,18.98
2023-04-14T13:21:56.869Z,18.90
2023-04-14T13:23:37.216Z,18.85
2023-04-14T13:25:17.616Z,18.80
2023-04-14T13:26:41.773Z,18.79
2023-04-14T13:28:03.768Z,18.80
2023-04-14T13:29:37.048Z,18.80
2023-04-14T13:31:23.358Z,18.84
2023-04-14T13:32:59.646Z,18.94
2023-04-14T13:34:45.620Z,19.14
2023-04-14T13:36:30.509Z,19.37
2023-04-14T13:38:07.007Z,19.60
2023-04-14T13:39:52.561Z,19.82
2023-04-14T13:41:33.887Z,20.03
2023-04-14T13:43:05.337Z,20.25
2023-04-14T13:44:39.212Z,20.36
2023-04-14T13:46:24.483Z,20.43
2023-04-14T13:48:01.345Z,20.43
2023-04-14T13:49:31.959Z,20.40
2023-04-14T13:50:55.600Z,20.40
2023-04-14T13:52:41.173Z,20.47
2023-04-14T13:54:02.950Z,20.57
2023-04-14T13:55:36.623Z,20.70
2023-04-14T13:57:24.673Z,20.85
2023-04-14T13:59:11.864Z,21.00
2023-04-14T14:00:52.197Z,21.12
2023-04-14T14:02:21.491Z,21.19
2023-04-14T14:03:55.143Z,21.26
2023-04-14T14:05:35.453Z,21.32
2023-04-14T14:07:11.177Z,21.40
2023-04-14T14:08:41.862Z,21.48
2023-04-14T14:10:11.037Z,21.56
2023-04-14T14:11:47.109Z,21.63
2023-04-14T14:13:20.514Z,21.68
2023-04-14T14:14:44.977Z,21.74
2023-04-14T14:16:35.970Z,21.78
2023-04-14T14:18:21.998Z,21.83
2023-04-14T14:19:56.481Z,21.87
2023-04-14T14:21:32.622Z,21.94
2023-04-14T14:23:06.177Z,22.03
2023-04-14T14:24:39.262Z,22.15
2023-04-14T14:26:24.154Z,22.25
2023-04-14T14:28:09.440Z,22.28
2023-04-14T14:29:31.881Z,22.26
2023-04-14T14:31:05.703Z,22.23
2023-04-14T14:32:40.327Z,22.18
2023-04-14T14:34:21.240Z,22.12
2023-04-14T14:35:57.568Z,22.03
2023-04-14T14:37:44.017Z,21.95
2023-04-14T14:39:37.704Z,21.87
2023-04-14T14:43:44.988Z,21.70
2023-04-14T14:45:31.383Z,21.67
2023-04-14T14:47:17.516Z,21.72
2023-04-14T14:48:38.214Z,21.77
2023-04-14T14:50:10.920Z,21.80
2023-04-14T14:51:52.312Z,21.82
2023-04-14T14:53:14.881Z,21.85
2023-04-14T14:54:49.500Z,21.84
2023-04-14T14:56:21.882Z,21.83
2023-04-14T14:58:02.298Z,21.79
2023-04-14T14:59:42.287Z,21.70
2023-04-14T15:01:14.553Z,21.62
2023-04-14T15:02:37.875Z,21.51
2023-04-14T15:04:23.150Z,21.37
2023-04-14T15:05:51.615Z,21.21
2023-04-14T15:07:12.440Z,21.08
2023-04-14T15:08:56.746Z,20.95
2023-04-14T15:10:41.582Z,20.80
2023-04-14T15:12:14.456Z,20.68
2023-04-14T15:13:58.658Z,20.50
2023-04-14T15:15:33.245Z,20.31
2023-04-14T15:17:17.432Z,20.17
2023-04-14T15:19:01.322Z,20.01
2023-04-14T15:20:54.511Z,19.87
2023-04-14T15:22:17.068Z,19.74
2023-04-14T15:23:43.393Z,19.63
2023-04-14T15:25:12.697Z,19.53
2023-04-14T15:26:56.886Z,19.45
2023-04-14T15:28:19.825Z,19.42
2023-04-14T15:29:40.356Z,19.38
2023-04-14T15:31:01.058Z,19.34
2023-04-14T15:32:26.367Z,19.29
2023-04-14T15:33:54.434Z,19.24
2023-04-14T15:35:30.329Z,19.19
2023-04-14T15:36:51.090Z,19.15
2023-04-14T15:38:36.875Z,19.11
2023-04-14T15:40:12.214Z,19.07
2023-04-14T15:41:40.073Z,19.03
2023-04-14T15:43:20.119Z,19.00
2023-04-14T15:44:48.028Z,18.95
2023-04-14T15:46:32.256Z,18.88
2023-04-14T15:48:16.375Z,18.79
2023-04-14T15:49:39.189Z,18.70
2023-04-14T15:51:11.211Z,18.60
2023-04-14T15:52:46.043Z,18.49
2023-04-14T15:54:38.571Z,18.38
2023-04-14T15:56:22.239Z,18.28
2023-04-14T15:58:06.249Z,18.21
2023-04-14T15:59:40.500Z,18.14
2023-04-14T16:01:16.782Z,18.06
2023-04-14T16:02:45.550Z,17.96
2023-04-14T16:04:33.950Z,17.87
2023-04-14T16:06:06.743Z,17.78
2023-04-14T16:07:37.567Z,17.73
2023-04-14T16:09:09.446Z,17.65
2023-04-14T16:10:30.038Z,17.59
2023-04-14T16:11:50.265Z,17.52
2023-04-14T16:13:30.386Z,17.46
2023-04-14T16:14:54.229Z,17.37
2023-04-14T16:16:30.039Z,17.30
2023-04-14T16:18:04.257Z,17.21
2023-04-14T16:19:32.635Z,17.13
2023-04-14T16:20:57.552Z,17.05
2023-04-14T16:22:34.030Z,16.96
2023-04-14T16:24:13.528Z,16.87
2023-04-14T16:25:37.642Z,16.78
2023-04-14T16:27:00.860Z,16.71
2023-04-14T16:28:45.008Z,16.62
2023-04-14T16:30:20.009Z,16.54
2023-04-14T16:31:52.249Z,16.45
2023-04-14T16:33:13.355Z,16.37
2023-04-14T16:34:52.660Z,16.27
2023-04-14T16:36:12.677Z,16.17
2023-04-14T16:38:05.512Z,16.07
2023-04-14T16:39:32.994Z,15.99
2023-04-14T16:40:55.711Z,15.91
2023-04-14T16:42:25.945Z,15.84
2023-04-14T16:44:00.488Z,15.76
2023-04-14T16:45:34.842Z,15.69
2023-04-14T16:47:06.738Z,15.64
2023-04-14T16:48:30.080Z,15.59
2023-04-14T16:50:10.844Z,15.53
2023-04-14T16:51:33.827Z,15.47
2023-04-14T16:53:17.946Z,15.41
2023-04-14T16:54:50.209Z,15.33
2023-04-14T16:56:24.534Z,15.27
2023-04-14T16:58:07.747Z,15.21
2023-04-14T17:00:00.665Z,15.14
2023-04-14T17:01:40.058Z,15.08
2023-04-14T17:03:14.624Z,15.04
2023-04-14T17:04:45.696Z,14.97
2023-04-14T17:06:38.022Z,14.93
2023-04-14T17:08:21.240Z,15.71
2023-04-14T17:09:44.560Z,16.92
2023-04-14T17:11:24.266Z,17.56
2023-04-14T17:12:56.451Z,17.41
2023-04-14T17:14:37.495Z,17.02
2023-04-14T17:16:21.989Z,16.52
2023-04-14T17:17:54.095Z,16.14
2023-04-14T17:19:21.454Z,15.91
2023-04-14T17:20:41.856Z,15.66
2023-04-14T17:22:20.563Z,15.45
2023-04-14T17:23:56.496Z,15.28
2023-04-14T17:25:41.469Z,15.08
2023-04-14T17:27:14.625Z,14.94
2023-04-14T17:28:45.367Z,14.80
2023-04-14T17:30:10.257Z,14.68
2023-04-14T17:31:42.026Z,14.56
2023-04-14T17:33:16.451Z,14.46
2023-04-14T17:34:51.158Z,14.33
2023-04-14T17:36:43.483Z,14.23
2023-04-14T17:38:08.861Z,14.21
2023-04-14T17:39:28.870Z,14.82
2023-04-14T17:41:01.666Z,15.87
2023-04-14T17:42:34.205Z,16.93
2023-04-14T17:44:07.369Z,17.09
2023-04-14T17:45:43.043Z,16.66
2023-04-14T17:47:22.151Z,16.23
2023-04-14T17:48:54.752Z,15.78
2023-04-14T17:50:22.524Z,15.42
2023-04-14T17:51:43.895Z,15.16
2023-04-14T17:53:23.232Z,14.91
2023-04-14T17:54:55.497Z,14.69
2023-04-14T17:56:27.174Z,14.48
2023-04-14T17:57:50.500Z,14.34
2023-04-14T17:59:12.070Z,14.19
2023-04-14T18:00:39.965Z,14.06
2023-04-14T18:02:21.236Z,13.92
2023-04-14T18:04:05.346Z,13.78
2023-04-14T18:05:28.147Z,14.03
2023-04-14T18:07:02.909Z,14.96
2023-04-14T18:08:43.060Z,16.27
2023-04-14T18:10:04.012Z,16.85
2023-04-14T18:11:48.056Z,16.59
2023-04-14T18:13:18.458Z,16.08
2023-04-14T18:14:38.817Z,15.63
2023-04-14T18:16:01.335Z,15.27
2023-04-14T18:17:28.739Z,14.93
2023-04-14T18:18:58.443Z,14.67
2023-04-14T18:20:32.849Z,14.39
2023-04-14T18:22:07.795Z,14.16
2023-04-14T18:23:29.289Z,13.96
2023-04-14T18:24:50.195Z,13.81
2023-04-14T18:29:21.845Z,15.68
2023-04-14T18:30:45.915Z,16.67
2023-04-14T18:32:13.898Z,16.73
2023-04-14T18:33:55.632Z,16.28
2023-04-14T18:35:42.665Z,15.71
2023-04-14T18:37:05.190Z,15.26
2023-04-14T18:38:27.600Z,14.94
2023-04-14T18:40:11.195Z,14.62
2023-04-14T18:41:34.289Z,14.35
2023-04-14T18:42:56.667Z,14.14
2023-04-14T18:44:36.136Z,13.93
2023-04-14T18:46:11.294Z,13.87
2023-04-14T18:47:51.140Z,14.66
2023-04-14T18:49:23.290Z,15.83
2023-04-14T18:51:07.169Z,16.79
2023-04-14T18:52:50.587Z,16.63
2023-04-14T18:54:25.561Z,16.08
2023-04-14T18:55:47.388Z,15.53
2023-04-14T18:57:32.435Z,15.04
2023-04-14T18:58:53.056Z,14.66
2023-04-14T19:00:23.356Z,14.33
2023-04-14T19:01:55.733Z,14.08
2023-04-14T19:03:36.127Z,13.79
2023-04-14T19:05:06.563Z,13.83
2023-04-14T19:06:39.681Z,14.83
2023-04-14T19:08:23.221Z,15.97
2023-04-14T19:10:03.500Z,16.65
2023-04-14T19:11:44.519Z,16.38
2023-04-14T19:13:27.977Z,15.70
2023-04-14T19:15:11.556Z,15.12
2023-04-14T19:16:34.920Z,14.69
2023-04-14T19:18:09.146Z,14.35
2023-04-14T19:19:53.576Z,13.99
2023-04-14T19:21:13.470Z,13.72
2023-04-14T19:22:37.193Z,13.61
2023-04-14T19:24:20.434Z,14.30
2023-04-14T19:26:04.555Z,15.55
2023-04-14T19:27:24.749Z,16.46
2023-04-14T19:28:56.759Z,16.53
2023-04-14T19:30:40.616Z,15.95
2023-04-14T19:32:03.116Z,15.36
2023-04-14T19:33:42.861Z,14.83
2023-04-14T19:35:14.618Z,14.42
2023-04-14T19:36:59.726Z,14.02
2023-04-14T19:38:32.572Z,13.66
2023-04-14T19:40:05.758Z,13.50
2023-04-14T19:41:26.276Z,14.06
2023-04-14T19:42:58.790Z,15.00
2023-04-14T19:44:33.541Z,16.16
2023-04-14T19:46:13.173Z,16.37
2023-04-14T19:47:47.371Z,15.85
2023-04-14T19:49:19.105Z,15.24
2023-04-14T19:50:51.334Z,14.72
2023-04-14T19:52:23.792Z,14.26
2023-04-14T19:53:55.934Z,13.87
2023-04-14T19:55:37.084Z,13.57
2023-04-14T19:57:07.198Z,13.34
2023-04-14T19:58:31.929Z,13.91
2023-04-14T20:00:23.774Z,14.99
2023-04-14T20:02:01.804Z,16.06
2023-04-14T20:03:22.551Z,16.14
2023-04-14T20:04:56.705Z,15.62
2023-04-14T20:06:34.240Z,15.06
2023-04-14T20:08:06.082Z,14.48
2023-04-14T20:09:44.010Z,13.94
2023-04-14T20:11:31.259Z,13.54
2023-04-14T20:12:54.099Z,13.26
2023-04-14T20:14:22.038Z,13.63
2023-04-14T20:15:57.010Z,14.64
2023-04-14T20:17:33.099Z,15.71
2023-04-14T20:19:05.323Z,16.12
2023-04-14T20:20:33.837Z,15.69
2023-04-14T20:22:03.950Z,15.08
2023-04-14T20:23:37.764Z,14.53
2023-04-14T20:25:09.343Z,14.03
2023-04-14T20:26:43.530Z,13.59
2023-04-14T20:28:30.181Z,13.22
2023-04-14T20:29:54.859Z,13.34
2023-04-14T20:31:38.463Z,14.31
2023-04-14T20:33:17.698Z,15.45
2023-04-14T20:34:40.149Z,16.01
2023-04-14T20:36:19.725Z,15.69
2023-04-14T20:37:51.930Z,15.02
2023-04-14T20:39:28.569Z,14.50
2023-04-14T20:41:08.242Z,13.94
2023-04-14T20:42:45.839Z,13.49
2023-04-14T20:44:17.514Z,13.13
2023-04-14T20:45:51.735Z,13.34
2023-04-14T20:47:16.724Z,14.32
2023-04-14T20:48:50.990Z,15.28
2023-04-14T20:50:13.670Z,16.03
2023-04-14T20:51:47.952Z,15.83
2023-04-14T20:53:22.061Z,15.23
2023-04-14T20:54:56.527Z,14.69
2023-04-14T20:56:19.222Z,14.15
2023-04-14T20:57:58.021Z,13.70